sensor_id;sensor_type;location;lat;lon;timestamp;pressure;altitude;pressure_sealevel;temperature;humidity
5679;BME280;2862;52.560;13.566;2023-04-10T00:01:22;101749.38;;;6.37;100.00
5679;BME280;2862;52.560;13.566;2023-04-10T00:11:26;101754.91;;;6.32;100.00
5679;BME280;2862;52.560;13.566;2023-04-10T00:21:30;101756.00;;;6.28;100.00
5679;BME280;2862;52.560;13.566;2023-04-10T00:31:34;101735.56;;;6.11;100.00
5679;BME280;2862;52.560;13.566;2023-04-10T00:41:38;101729.19;;;6.16;100.00
5679;BME280;2862;52.560;13.566;2023-04-10T00:51:41;101718.72;;;5.94;100.00
5679;BME280;2862;52.560;13.566;2023-04-10T01:01:46;101708.22;;;5.91;100.00
5679;BME280;2862;52.560;13.566;2023-04-10T01:11:52;101712.84;;;5.87;100.00
5679;BME280;2862;52.560;13.566;2023-04-10T01:22:00;101709.44;;;5.83;100.00
5679;BME280;2862;52.560;13.566;2023-04-10T01:32:09;101714.72;;;5.85;100.00
5679;BME280;2862;52.560;13.566;2023-04-10T01:42:14;101701.44;;;6.04;100.00
5679;BME280;2862;52.560;13.566;2023-04-10T01:52:20;101708.25;;;6.09;100.00
5679;BME280;2862;52.560;13.566;2023-04-10T02:02:34;101693.16;;;6.10;100.00
5679;BME280;2862;52.560;13.566;2023-04-10T02:12:45;101702.06;;;6.09;99.56
5679;BME280;2862;52.560;13.566;2023-04-10T02:22:52;101701.09;;;5.93;99.72
5679;BME280;2862;52.560;13.566;2023-04-10T02:33:00;101701.34;;;5.86;99.63
5679;BME280;2862;52.560;13.566;2023-04-10T02:43:04;101707.81;;;5.81;100.00
5679;BME280;2862;52.560;13.566;2023-04-10T02:53:09;101711.91;;;5.69;99.62
5679;BME280;2862;52.560;13.566;2023-04-10T03:03:13;101707.69;;;5.46;100.00
5679;BME280;2862;52.560;13.566;2023-04-10T03:13:23;101712.13;;;5.46;100.00
5679;BME280;2862;52.560;13.566;2023-04-10T03:23:26;101711.28;;;5.45;100.00
5679;BME280;2862;52.560;13.566;2023-04-10T03:33:32;101708.25;;;5.34;100.00
5679;BME280;2862;52.560;13.566;2023-04-10T03:43:35;101711.88;;;5.31;100.00
5679;BME280;2862;52.560;13.566;2023-04-10T03:53:40;101716.44;;;5.09;99.78
5679;BME280;2862;52.560;13.566;2023-04-10T04:03:48;101713.34;;;4.79;100.00
5679;BME280;2862;52.560;13.566;2023-04-10T04:14:03;101722.47;;;4.92;100.00
5679;BME280;2862;52.560;13.566;2023-04-10T04:24:19;101722.34;;;4.95;100.00
5679;BME280;2862;52.560;13.566;2023-04-10T04:34:32;101718.91;;;4.93;100.00
5679;BME280;2862;52.560;13.566;2023-04-10T04:44:45;101720.50;;;5.37;98.74
5679;BME280;2862;52.560;13.566;2023-04-10T04:55:04;101723.22;;;7.32;87.17
5679;BME280;2862;52.560;13.566;2023-04-10T05:05:27;101710.38;;;8.19;81.48
5679;BME280;2862;52.560;13.566;2023-04-10T05:15:58;101709.81;;;11.84;66.82
5679;BME280;2862;52.560;13.566;2023-04-10T05:26:25;101700.69;;;13.16;58.49
5679;BME280;2862;52.560;13.566;2023-04-10T05:36:42;101703.91;;;16.65;46.84
5679;BME280;2862;52.560;13.566;2023-04-10T05:46:54;101701.88;;;18.61;41.14
5679;BME280;2862;52.560;13.566;2023-04-10T05:57:17;101701.88;;;18.61;41.31
5679;BME280;2862;52.560;13.566;2023-04-10T06:07:21;101699.22;;;20.15;38.68
5679;BME280;2862;52.560;13.566;2023-04-10T06:17:25;101696.97;;;21.89;35.18
5679;BME280;2862;52.560;13.566;2023-04-10T06:27:29;101695.91;;;23.27;32.49
5679;BME280;2862;52.560;13.566;2023-04-10T06:37:34;101682.09;;;24.31;30.89
5679;BME280;2862;52.560;13.566;2023-04-10T06:47:39;101684.03;;;24.80;30.20
5679;BME280;2862;52.560;13.566;2023-04-10T06:57:44;101664.47;;;25.39;29.96
5679;BME280;2862;52.560;13.566;2023-04-10T07:07:47;101662.13;;;25.01;30.74
5679;BME280;2862;52.560;13.566;2023-04-10T07:17:53;101669.19;;;24.03;32.79
5679;BME280;2862;52.560;13.566;2023-04-10T07:27:57;101665.25;;;21.34;38.73
5679;BME280;2862;52.560;13.566;2023-04-10T07:38:01;101678.03;;;19.34;44.32
5679;BME280;2862;52.560;13.566;2023-04-10T07:48:05;101670.41;;;19.38;45.63
5679;BME280;2862;52.560;13.566;2023-04-10T07:58:10;101651.56;;;17.60;50.67
5679;BME280;2862;52.560;13.566;2023-04-10T08:08:14;101648.19;;;18.39;49.56
5679;BME280;2862;52.560;13.566;2023-04-10T08:18:18;101645.78;;;18.00;49.65
5679;BME280;2862;52.560;13.566;2023-04-10T08:28:21;101641.38;;;16.60;54.06
5679;BME280;2862;52.560;13.566;2023-04-10T08:38:25;101645.63;;;16.82;54.84
5679;BME280;2862;52.560;13.566;2023-04-10T08:48:34;101632.34;;;17.63;51.42
5679;BME280;2862;52.560;13.566;2023-04-10T08:58:39;101633.44;;;16.39;55.33
5679;BME280;2862;52.560;13.566;2023-04-10T09:08:42;101622.47;;;16.69;55.18
5679;BME280;2862;52.560;13.566;2023-04-10T09:18:48;101604.00;;;16.45;54.28
5679;BME280;2862;52.560;13.566;2023-04-10T09:28:59;101594.53;;;15.93;56.15
5679;BME280;2862;52.560;13.566;2023-04-10T09:39:03;101575.53;;;16.80;52.33
5679;BME280;2862;52.560;13.566;2023-04-10T09:49:06;101565.69;;;16.23;53.52
5679;BME280;2862;52.560;13.566;2023-04-10T09:59:12;101545.88;;;16.70;53.26
5679;BME280;2862;52.560;13.566;2023-04-10T10:09:15;101537.44;;;16.83;53.38
5679;BME280;2862;52.560;13.566;2023-04-10T10:19:24;101521.06;;;16.28;55.57
5679;BME280;2862;52.560;13.566;2023-04-10T10:29:31;101524.13;;;15.86;54.88
5679;BME280;2862;52.560;13.566;2023-04-10T10:39:43;101505.91;;;15.40;58.40
5679;BME280;2862;52.560;13.566;2023-04-10T10:49:54;101483.03;;;15.25;56.42
5679;BME280;2862;52.560;13.566;2023-04-10T10:59:58;101465.94;;;15.64;55.27
5679;BME280;2862;52.560;13.566;2023-04-10T11:10:02;101459.66;;;16.12;53.38
5679;BME280;2862;52.560;13.566;2023-04-10T11:20:07;101456.91;;;16.22;53.59
5679;BME280;2862;52.560;13.566;2023-04-10T11:30:31;101436.94;;;16.52;51.79
5679;BME280;2862;52.560;13.566;2023-04-10T11:40:59;101420.75;;;16.42;50.67
5679;BME280;2862;52.560;13.566;2023-04-10T11:51:10;101408.56;;;16.01;52.15
5679;BME280;2862;52.560;13.566;2023-04-10T12:01:19;101397.19;;;16.07;51.69
5679;BME280;2862;52.560;13.566;2023-04-10T12:11:24;101369.09;;;16.28;50.54
5679;BME280;2862;52.560;13.566;2023-04-10T12:21:34;101355.13;;;16.42;49.38
5679;BME280;2862;52.560;13.566;2023-04-10T12:31:38;101343.88;;;16.46;48.71
5679;BME280;2862;52.560;13.566;2023-04-10T12:41:43;101335.13;;;16.07;49.44
5679;BME280;2862;52.560;13.566;2023-04-10T12:51:47;101315.34;;;16.16;49.16
5679;BME280;2862;52.560;13.566;2023-04-10T13:01:53;101291.91;;;15.89;50.31
5679;BME280;2862;52.560;13.566;2023-04-10T13:11:56;101276.47;;;16.09;49.23
5679;BME280;2862;52.560;13.566;2023-04-10T13:22:04;101260.88;;;16.31;49.29
5679;BME280;2862;52.560;13.566;2023-04-10T13:32:07;101219.28;;;16.06;50.35
5679;BME280;2862;52.560;13.566;2023-04-10T13:42:29;101220.84;;;15.71;52.09
5679;BME280;2862;52.560;13.566;2023-04-10T13:52:32;101194.41;;;15.84;51.59
5679;BME280;2862;52.560;13.566;2023-04-10T14:02:38;101179.66;;;16.06;52.45
5679;BME280;2862;52.560;13.566;2023-04-10T14:12:43;101178.22;;;16.12;52.68
5679;BME280;2862;52.560;13.566;2023-04-10T14:22:48;101154.78;;;16.30;52.91
5679;BME280;2862;52.560;13.566;2023-04-10T14:32:50;101142.13;;;16.49;51.47
5679;BME280;2862;52.560;13.566;2023-04-10T14:42:55;101136.69;;;16.66;48.93
5679;BME280;2862;52.560;13.566;2023-04-10T14:52:58;101118.28;;;16.44;49.45
5679;BME280;2862;52.560;13.566;2023-04-10T15:03:02;101103.75;;;16.19;51.28
5679;BME280;2862;52.560;13.566;2023-04-10T15:13:06;101082.00;;;16.03;51.45
5679;BME280;2862;52.560;13.566;2023-04-10T15:23:10;101067.91;;;15.73;51.01
5679;BME280;2862;52.560;13.566;2023-04-10T15:33:13;101051.97;;;15.52;50.55
5679;BME280;2862;52.560;13.566;2023-04-10T15:43:18;101037.84;;;15.68;49.98
5679;BME280;2862;52.560;13.566;2023-04-10T15:53:20;101015.50;;;15.93;49.61
5679;BME280;2862;52.560;13.566;2023-04-10T16:03:25;101010.19;;;16.02;48.14
5679;BME280;2862;52.560;13.566;2023-04-10T16:13:30;100974.53;;;15.90;46.78
5679;BME280;2862;52.560;13.566;2023-04-10T16:23:45;100961.06;;;15.72;46.79
5679;BME280;2862;52.560;13.566;2023-04-10T16:33:54;100941.19;;;15.73;46.74
5679;BME280;2862;52.560;13.566;2023-04-10T16:43:58;100927.16;;;15.70;46.55
5679;BME280;2862;52.560;13.566;2023-04-10T16:54:01;100918.00;;;15.62;46.88
5679;BME280;2862;52.560;13.566;2023-04-10T17:04:05;100899.16;;;15.62;47.60
5679;BME280;2862;52.560;13.566;2023-04-10T17:14:09;100890.97;;;15.54;46.90
5679;BME280;2862;52.560;13.566;2023-04-10T17:24:15;100875.03;;;15.25;47.06
5679;BME280;2862;52.560;13.566;2023-04-10T17:34:21;100865.72;;;15.02;47.43
5679;BME280;2862;52.560;13.566;2023-04-10T17:44:25;100844.03;;;14.85;47.36
5679;BME280;2862;52.560;13.566;2023-04-10T17:54:28;100841.44;;;14.66;48.93
5679;BME280;2862;52.560;13.566;2023-04-10T18:04:34;100826.13;;;14.49;50.15
5679;BME280;2862;52.560;13.566;2023-04-10T18:14:37;100811.06;;;14.28;50.99
5679;BME280;2862;52.560;13.566;2023-04-10T18:24:44;100808.09;;;14.22;51.57
5679;BME280;2862;52.560;13.566;2023-04-10T18:34:47;100803.66;;;14.03;51.55
5679;BME280;2862;52.560;13.566;2023-04-10T18:44:52;100807.53;;;13.91;51.22
5679;BME280;2862;52.560;13.566;2023-04-10T18:54:58;100797.31;;;13.67;51.48
5679;BME280;2862;52.560;13.566;2023-04-10T19:05:05;100776.81;;;13.56;51.66
5679;BME280;2862;52.560;13.566;2023-04-10T19:15:10;100759.28;;;13.52;52.37
5679;BME280;2862;52.560;13.566;2023-04-10T19:25:14;100745.34;;;13.39;52.63
5679;BME280;2862;52.560;13.566;2023-04-10T19:35:20;100747.19;;;13.19;53.31
5679;BME280;2862;52.560;13.566;2023-04-10T19:45:24;100716.69;;;13.00;53.83
5679;BME280;2862;52.560;13.566;2023-04-10T19:55:29;100698.06;;;12.89;53.88
5679;BME280;2862;52.560;13.566;2023-04-10T20:05:34;100689.59;;;12.84;54.01
5679;BME280;2862;52.560;13.566;2023-04-10T20:15:37;100666.75;;;12.70;53.65
5679;BME280;2862;52.560;13.566;2023-04-10T20:25:42;100648.81;;;12.61;53.31
5679;BME280;2862;52.560;13.566;2023-04-10T20:35:48;100637.69;;;12.56;53.17
5679;BME280;2862;52.560;13.566;2023-04-10T20:45:55;100615.53;;;12.44;52.18
5679;BME280;2862;52.560;13.566;2023-04-10T20:55:58;100612.97;;;12.53;51.26
5679;BME280;2862;52.560;13.566;2023-04-10T21:06:03;100604.25;;;12.51;50.57
5679;BME280;2862;52.560;13.566;2023-04-10T21:16:06;100605.78;;;12.53;50.20
5679;BME280;2862;52.560;13.566;2023-04-10T21:26:13;100592.22;;;12.64;49.83
5679;BME280;2862;52.560;13.566;2023-04-10T21:36:16;100580.66;;;12.54;50.05
5679;BME280;2862;52.560;13.566;2023-04-10T21:46:20;100567.22;;;12.73;49.52
5679;BME280;2862;52.560;13.566;2023-04-10T21:56:24;100561.84;;;12.73;49.58
5679;BME280;2862;52.560;13.566;2023-04-10T22:06:28;100539.56;;;12.54;50.53
5679;BME280;2862;52.560;13.566;2023-04-10T22:16:32;100524.50;;;12.43;50.70
5679;BME280;2862;52.560;13.566;2023-04-10T22:26:41;100494.16;;;12.33;50.88
5679;BME280;2862;52.560;13.566;2023-04-10T22:36:46;100474.44;;;12.24;51.67
5679;BME280;2862;52.560;13.566;2023-04-10T22:46:51;100455.75;;;12.05;52.24
5679;BME280;2862;52.560;13.566;2023-04-10T22:56:56;100454.84;;;12.14;52.16
5679;BME280;2862;52.560;13.566;2023-04-10T23:07:01;100438.25;;;12.10;52.37
5679;BME280;2862;52.560;13.566;2023-04-10T23:17:04;100431.47;;;12.06;52.67
5679;BME280;2862;52.560;13.566;2023-04-10T23:27:10;100407.34;;;12.06;52.55
5679;BME280;2862;52.560;13.566;2023-04-10T23:37:13;100391.84;;;12.00;52.96
5679;BME280;2862;52.560;13.566;2023-04-10T23:47:18;100351.84;;;11.89;53.41
5679;BME280;2862;52.560;13.566;2023-04-10T23:57:24;100346.47;;;11.69;53.84
